sensor_id;sensor_type;location;lat;lon;timestamp;temperature;humidity
54788;DHT22;59598;48.112;16.280;2023-04-24T00:01:23;12.90;99.90
54788;DHT22;59598;48.112;16.280;2023-04-24T00:03:57;12.90;99.90
54788;DHT22;59598;48.112;16.280;2023-04-24T00:06:31;12.80;99.90
54788;DHT22;59598;48.112;16.280;2023-04-24T00:09:05;12.70;99.90
54788;DHT22;59598;48.112;16.280;2023-04-24T00:11:42;12.60;99.90
54788;DHT22;59598;48.112;16.280;2023-04-24T00:14:16;12.60;99.90
54788;DHT22;59598;48.112;16.280;2023-04-24T00:16:51;12.50;99.90
54788;DHT22;59598;48.112;16.280;2023-04-24T00:19:25;12.40;99.90
54788;DHT22;59598;48.112;16.280;2023-04-24T00:21:59;12.30;99.90
54788;DHT22;59598;48.112;16.280;2023-04-24T00:24:33;12.20;99.90
54788;DHT22;59598;48.112;16.280;2023-04-24T00:27:10;12.10;99.90
54788;DHT22;59598;48.112;16.280;2023-04-24T00:29:46;12.10;99.90
54788;DHT22;59598;48.112;16.280;2023-04-24T00:32:17;12.20;99.90
54788;DHT22;59598;48.112;16.280;2023-04-24T00:34:51;12.10;99.90
54788;DHT22;59598;48.112;16.280;2023-04-24T00:37:25;12.00;99.90
54788;DHT22;59598;48.112;16.280;2023-04-24T00:40:00;11.90;99.90
54788;DHT22;59598;48.112;16.280;2023-04-24T00:42:32;11.80;99.90
54788;DHT22;59598;48.112;16.280;2023-04-24T00:45:04;11.70;99.90
54788;DHT22;59598;48.112;16.280;2023-04-24T00:47:37;11.70;99.90
54788;DHT22;59598;48.112;16.280;2023-04-24T00:50:18;11.60;99.90
54788;DHT22;59598;48.112;16.280;2023-04-24T00:52:52;11.50;99.90
54788;DHT22;59598;48.112;16.280;2023-04-24T00:55:31;11.50;99.90
54788;DHT22;59598;48.112;16.280;2023-04-24T00:58:15;11.50;99.90
54788;DHT22;59598;48.112;16.280;2023-04-24T01:00:48;11.40;99.90
54788;DHT22;59598;48.112;16.280;2023-04-24T01:03:28;11.40;99.90
54788;DHT22;59598;48.112;16.280;2023-04-24T01:06:04;11.30;99.90
54788;DHT22;59598;48.112;16.280;2023-04-24T01:08:38;11.20;99.90
54788;DHT22;59598;48.112;16.280;2023-04-24T01:11:17;11.10;99.90
54788;DHT22;59598;48.112;16.280;2023-04-24T01:13:51;11.00;99.90
54788;DHT22;59598;48.112;16.280;2023-04-24T01:16:23;10.90;99.90
54788;DHT22;59598;48.112;16.280;2023-04-24T01:18:57;10.90;99.90
54788;DHT22;59598;48.112;16.280;2023-04-24T01:21:30;10.90;99.90
54788;DHT22;59598;48.112;16.280;2023-04-24T01:24:08;10.80;99.90
54788;DHT22;59598;48.112;16.280;2023-04-24T01:26:46;10.80;99.90
54788;DHT22;59598;48.112;16.280;2023-04-24T01:29:18;10.80;99.90
54788;DHT22;59598;48.112;16.280;2023-04-24T01:31:53;10.80;99.90
54788;DHT22;59598;48.112;16.280;2023-04-24T01:34:26;10.80;99.90
54788;DHT22;59598;48.112;16.280;2023-04-24T01:36:58;10.70;99.90
54788;DHT22;59598;48.112;16.280;2023-04-24T01:39:37;10.70;99.90
54788;DHT22;59598;48.112;16.280;2023-04-24T01:42:12;10.70;99.90
54788;DHT22;59598;48.112;16.280;2023-04-24T01:44:51;10.60;99.90
54788;DHT22;59598;48.112;16.280;2023-04-24T01:47:31;10.60;99.90
54788;DHT22;59598;48.112;16.280;2023-04-24T01:50:26;10.70;99.90
54788;DHT22;59598;48.112;16.280;2023-04-24T01:52:57;10.70;99.90
54788;DHT22;59598;48.112;16.280;2023-04-24T01:55:33;10.70;99.90
54788;DHT22;59598;48.112;16.280;2023-04-24T01:58:05;10.60;99.90
54788;DHT22;59598;48.112;16.280;2023-04-24T02:00:42;10.70;99.90
54788;DHT22;59598;48.112;16.280;2023-04-24T02:03:15;10.70;99.90
54788;DHT22;59598;48.112;16.280;2023-04-24T02:05:52;10.70;99.90
54788;DHT22;59598;48.112;16.280;2023-04-24T02:08:35;10.70;99.90
54788;DHT22;59598;48.112;16.280;2023-04-24T02:11:09;10.80;99.90
54788;DHT22;59598;48.112;16.280;2023-04-24T02:13:40;10.90;99.90
54788;DHT22;59598;48.112;16.280;2023-04-24T02:16:13;10.90;99.90
54788;DHT22;59598;48.112;16.280;2023-04-24T02:18:46;10.90;99.90
54788;DHT22;59598;48.112;16.280;2023-04-24T02:21:18;10.80;99.90
54788;DHT22;59598;48.112;16.280;2023-04-24T02:23:52;10.80;99.90
54788;DHT22;59598;48.112;16.280;2023-04-24T02:26:23;10.80;99.90
54788;DHT22;59598;48.112;16.280;2023-04-24T02:29:05;10.80;99.90
54788;DHT22;59598;48.112;16.280;2023-04-24T02:31:39;10.90;99.90
54788;DHT22;59598;48.112;16.280;2023-04-24T02:34:14;10.80;99.90
54788;DHT22;59598;48.112;16.280;2023-04-24T02:36:53;10.80;99.90
54788;DHT22;59598;48.112;16.280;2023-04-24T02:39:25;10.80;99.90
54788;DHT22;59598;48.112;16.280;2023-04-24T02:41:59;10.80;99.90
54788;DHT22;59598;48.112;16.280;2023-04-24T02:44:34;10.80;99.90
54788;DHT22;59598;48.112;16.280;2023-04-24T02:47:07;10.70;99.90
54788;DHT22;59598;48.112;16.280;2023-04-24T02:49:47;10.70;99.90
54788;DHT22;59598;48.112;16.280;2023-04-24T02:52:18;10.60;99.90
54788;DHT22;59598;48.112;16.280;2023-04-24T02:54:52;10.40;99.90
54788;DHT22;59598;48.112;16.280;2023-04-24T02:57:26;10.40;99.90
54788;DHT22;59598;48.112;16.280;2023-04-24T03:00:03;10.30;99.90
54788;DHT22;59598;48.112;16.280;2023-04-24T03:02:38;10.30;99.90
54788;DHT22;59598;48.112;16.280;2023-04-24T03:05:15;10.20;99.90
54788;DHT22;59598;48.112;16.280;2023-04-24T03:07:50;10.20;99.90
54788;DHT22;59598;48.112;16.280;2023-04-24T03:10:24;10.10;99.90
54788;DHT22;59598;48.112;16.280;2023-04-24T03:12:56;10.00;99.90
54788;DHT22;59598;48.112;16.280;2023-04-24T03:15:30;10.00;99.90
54788;DHT22;59598;48.112;16.280;2023-04-24T03:18:04;10.00;99.90
54788;DHT22;59598;48.112;16.280;2023-04-24T03:20:40;9.90;99.90
54788;DHT22;59598;48.112;16.280;2023-04-24T03:23:12;9.90;99.90
54788;DHT22;59598;48.112;16.280;2023-04-24T03:25:44;9.90;99.90
54788;DHT22;59598;48.112;16.280;2023-04-24T03:28:16;9.90;99.90
54788;DHT22;59598;48.112;16.280;2023-04-24T03:30:47;9.90;99.90
54788;DHT22;59598;48.112;16.280;2023-04-24T03:33:21;9.90;99.90
54788;DHT22;59598;48.112;16.280;2023-04-24T03:35:53;9.90;99.90
54788;DHT22;59598;48.112;16.280;2023-04-24T03:38:27;9.90;99.90
54788;DHT22;59598;48.112;16.280;2023-04-24T03:41:05;9.90;99.90
54788;DHT22;59598;48.112;16.280;2023-04-24T03:43:37;10.10;99.90
54788;DHT22;59598;48.112;16.280;2023-04-24T03:46:14;10.10;99.90
54788;DHT22;59598;48.112;16.280;2023-04-24T03:48:49;10.10;99.90
54788;DHT22;59598;48.112;16.280;2023-04-24T03:51:25;10.20;99.90
54788;DHT22;59598;48.112;16.280;2023-04-24T03:54:01;10.40;99.90
54788;DHT22;59598;48.112;16.280;2023-04-24T03:56:35;10.40;99.90
54788;DHT22;59598;48.112;16.280;2023-04-24T03:59:08;10.60;99.90
54788;DHT22;59598;48.112;16.280;2023-04-24T04:01:46;10.70;99.90
54788;DHT22;59598;48.112;16.280;2023-04-24T04:04:19;10.70;99.90
54788;DHT22;59598;48.112;16.280;2023-04-24T04:06:53;10.80;99.90
54788;DHT22;59598;48.112;16.280;2023-04-24T04:09:25;10.90;99.90
54788;DHT22;59598;48.112;16.280;2023-04-24T04:11:57;11.00;99.90
54788;DHT22;59598;48.112;16.280;2023-04-24T04:14:32;11.50;99.90
54788;DHT22;59598;48.112;16.280;2023-04-24T04:17:08;11.60;99.90
54788;DHT22;59598;48.112;16.280;2023-04-24T04:19:49;11.70;99.90
54788;DHT22;59598;48.112;16.280;2023-04-24T04:22:22;11.90;99.90
54788;DHT22;59598;48.112;16.280;2023-04-24T04:28:47;12.40;99.90
54788;DHT22;59598;48.112;16.280;2023-04-24T04:31:22;12.60;99.90
54788;DHT22;59598;48.112;16.280;2023-04-24T04:33:56;12.70;99.90
54788;DHT22;59598;48.112;16.280;2023-04-24T04:36:28;12.80;99.90
54788;DHT22;59598;48.112;16.280;2023-04-24T04:39:00;12.80;99.90
54788;DHT22;59598;48.112;16.280;2023-04-24T04:41:38;12.80;99.90
54788;DHT22;59598;48.112;16.280;2023-04-24T04:44:12;12.80;99.90
54788;DHT22;59598;48.112;16.280;2023-04-24T04:46:46;12.80;99.90
54788;DHT22;59598;48.112;16.280;2023-04-24T04:49:23;12.80;99.90
54788;DHT22;59598;48.112;16.280;2023-04-24T04:51:57;12.80;99.90
54788;DHT22;59598;48.112;16.280;2023-04-24T04:54:31;12.80;99.90
54788;DHT22;59598;48.112;16.280;2023-04-24T04:57:07;12.90;99.90
54788;DHT22;59598;48.112;16.280;2023-04-24T04:59:41;13.00;99.90
54788;DHT22;59598;48.112;16.280;2023-04-24T05:02:16;13.10;99.90
54788;DHT22;59598;48.112;16.280;2023-04-24T05:04:47;13.20;99.90
54788;DHT22;59598;48.112;16.280;2023-04-24T05:07:24;13.30;99.90
54788;DHT22;59598;48.112;16.280;2023-04-24T05:09:57;13.40;99.90
54788;DHT22;59598;48.112;16.280;2023-04-24T05:12:34;13.40;99.90
54788;DHT22;59598;48.112;16.280;2023-04-24T05:15:06;13.50;99.90
54788;DHT22;59598;48.112;16.280;2023-04-24T05:17:42;13.50;99.90
54788;DHT22;59598;48.112;16.280;2023-04-24T05:20:16;13.60;99.90
54788;DHT22;59598;48.112;16.280;2023-04-24T05:22:48;13.70;99.90
54788;DHT22;59598;48.112;16.280;2023-04-24T05:25:22;13.80;99.90
54788;DHT22;59598;48.112;16.280;2023-04-24T05:27:59;13.90;99.90
54788;DHT22;59598;48.112;16.280;2023-04-24T05:30:35;14.00;99.90
54788;DHT22;59598;48.112;16.280;2023-04-24T05:33:12;14.10;99.90
54788;DHT22;59598;48.112;16.280;2023-04-24T05:35:52;14.10;99.90
54788;DHT22;59598;48.112;16.280;2023-04-24T05:38:28;14.20;99.90
54788;DHT22;59598;48.112;16.280;2023-04-24T05:41:00;14.20;99.90
54788;DHT22;59598;48.112;16.280;2023-04-24T05:43:32;14.30;99.90
54788;DHT22;59598;48.112;16.280;2023-04-24T05:46:12;14.40;99.90
54788;DHT22;59598;48.112;16.280;2023-04-24T05:48:46;14.50;99.90
54788;DHT22;59598;48.112;16.280;2023-04-24T05:51:20;14.50;99.90
54788;DHT22;59598;48.112;16.280;2023-04-24T05:53:56;14.60;99.90
54788;DHT22;59598;48.112;16.280;2023-04-24T05:56:28;14.50;99.90
54788;DHT22;59598;48.112;16.280;2023-04-24T05:59:02;14.40;99.90
54788;DHT22;59598;48.112;16.280;2023-04-24T06:01:35;14.50;99.90
54788;DHT22;59598;48.112;16.280;2023-04-24T06:04:12;14.50;99.90
54788;DHT22;59598;48.112;16.280;2023-04-24T06:06:46;14.60;99.90
54788;DHT22;59598;48.112;16.280;2023-04-24T06:09:22;14.70;99.90
54788;DHT22;59598;48.112;16.280;2023-04-24T06:11:56;14.60;99.90
54788;DHT22;59598;48.112;16.280;2023-04-24T06:14:31;14.60;99.90
54788;DHT22;59598;48.112;16.280;2023-04-24T06:17:07;14.70;99.90
54788;DHT22;59598;48.112;16.280;2023-04-24T06:19:39;14.60;99.90
54788;DHT22;59598;48.112;16.280;2023-04-24T06:22:17;14.70;99.90
54788;DHT22;59598;48.112;16.280;2023-04-24T06:24:54;14.50;99.90
54788;DHT22;59598;48.112;16.280;2023-04-24T06:27:29;14.60;99.90
54788;DHT22;59598;48.112;16.280;2023-04-24T06:30:07;14.70;99.90
54788;DHT22;59598;48.112;16.280;2023-04-24T06:32:39;14.70;99.90
54788;DHT22;59598;48.112;16.280;2023-04-24T06:35:11;14.80;99.90
54788;DHT22;59598;48.112;16.280;2023-04-24T06:37:48;15.00;99.90
54788;DHT22;59598;48.112;16.280;2023-04-24T06:40:29;15.20;99.90
54788;DHT22;59598;48.112;16.280;2023-04-24T06:43:01;15.20;99.90
54788;DHT22;59598;48.112;16.280;2023-04-24T06:45:38;15.30;99.90
54788;DHT22;59598;48.112;16.280;2023-04-24T06:48:13;15.30;99.90
54788;DHT22;59598;48.112;16.280;2023-04-24T06:50:47;15.20;99.90
54788;DHT22;59598;48.112;16.280;2023-04-24T06:53:19;15.30;99.90
54788;DHT22;59598;48.112;16.280;2023-04-24T06:55:58;15.30;99.90
54788;DHT22;59598;48.112;16.280;2023-04-24T06:58:32;15.30;99.90
54788;DHT22;59598;48.112;16.280;2023-04-24T07:01:06;15.20;99.90
54788;DHT22;59598;48.112;16.280;2023-04-24T07:03:37;15.10;99.90
54788;DHT22;59598;48.112;16.280;2023-04-24T07:06:14;15.00;99.90
54788;DHT22;59598;48.112;16.280;2023-04-24T07:08:54;15.00;99.90
54788;DHT22;59598;48.112;16.280;2023-04-24T07:11:27;15.00;99.90
54788;DHT22;59598;48.112;16.280;2023-04-24T07:14:05;15.00;99.90
54788;DHT22;59598;48.112;16.280;2023-04-24T07:16:38;15.10;99.90
54788;DHT22;59598;48.112;16.280;2023-04-24T07:19:14;14.90;99.90
54788;DHT22;59598;48.112;16.280;2023-04-24T07:21:46;14.80;99.90
54788;DHT22;59598;48.112;16.280;2023-04-24T07:24:17;14.70;99.90
54788;DHT22;59598;48.112;16.280;2023-04-24T07:26:51;14.60;1.00
54788;DHT22;59598;48.112;16.280;2023-04-24T07:29:25;14.70;1.00
54788;DHT22;59598;48.112;16.280;2023-04-24T07:31:59;14.80;1.00
54788;DHT22;59598;48.112;16.280;2023-04-24T07:34:31;14.70;1.00
54788;DHT22;59598;48.112;16.280;2023-04-24T07:37:07;14.60;1.00
54788;DHT22;59598;48.112;16.280;2023-04-24T07:39:41;14.40;1.00
54788;DHT22;59598;48.112;16.280;2023-04-24T07:42:15;14.30;1.00
54788;DHT22;59598;48.112;16.280;2023-04-24T07:44:47;14.30;1.00
54788;DHT22;59598;48.112;16.280;2023-04-24T07:47:18;14.20;1.00
54788;DHT22;59598;48.112;16.280;2023-04-24T07:49:51;14.30;1.00
54788;DHT22;59598;48.112;16.280;2023-04-24T07:52:25;14.20;1.00
54788;DHT22;59598;48.112;16.280;2023-04-24T07:54:59;14.30;1.00
54788;DHT22;59598;48.112;16.280;2023-04-24T07:57:31;14.20;1.00
54788;DHT22;59598;48.112;16.280;2023-04-24T08:00:03;14.20;1.00
54788;DHT22;59598;48.112;16.280;2023-04-24T08:02:39;14.40;1.00
54788;DHT22;59598;48.112;16.280;2023-04-24T08:05:10;14.40;1.00
54788;DHT22;59598;48.112;16.280;2023-04-24T08:07:45;14.40;1.00
54788;DHT22;59598;48.112;16.280;2023-04-24T08:10:17;14.40;1.00
54788;DHT22;59598;48.112;16.280;2023-04-24T08:12:53;14.40;1.00
54788;DHT22;59598;48.112;16.280;2023-04-24T08:15:30;14.40;1.00
54788;DHT22;59598;48.112;16.280;2023-04-24T08:18:03;14.30;1.00
54788;DHT22;59598;48.112;16.280;2023-04-24T08:20:38;14.20;1.00
54788;DHT22;59598;48.112;16.280;2023-04-24T08:23:09;13.70;96.00
54788;DHT22;59598;48.112;16.280;2023-04-24T08:25:41;13.10;99.90
54788;DHT22;59598;48.112;16.280;2023-04-24T08:28:13;12.80;99.90
54788;DHT22;59598;48.112;16.280;2023-04-24T08:30:51;12.50;99.90
54788;DHT22;59598;48.112;16.280;2023-04-24T08:33:25;12.20;99.90
54788;DHT22;59598;48.112;16.280;2023-04-24T08:36:07;12.10;99.90
54788;DHT22;59598;48.112;16.280;2023-04-24T08:38:41;12.00;99.90
54788;DHT22;59598;48.112;16.280;2023-04-24T08:41:14;12.00;99.90
54788;DHT22;59598;48.112;16.280;2023-04-24T08:43:50;12.00;99.90
54788;DHT22;59598;48.112;16.280;2023-04-24T08:46:22;11.90;99.90
54788;DHT22;59598;48.112;16.280;2023-04-24T08:48:58;11.90;99.90
54788;DHT22;59598;48.112;16.280;2023-04-24T08:51:33;11.90;99.90
54788;DHT22;59598;48.112;16.280;2023-04-24T08:54:07;11.80;99.90
54788;DHT22;59598;48.112;16.280;2023-04-24T08:56:44;11.80;99.90
54788;DHT22;59598;48.112;16.280;2023-04-24T08:59:16;11.70;99.90
54788;DHT22;59598;48.112;16.280;2023-04-24T09:01:53;11.70;99.90
54788;DHT22;59598;48.112;16.280;2023-04-24T09:04:27;11.70;99.90
54788;DHT22;59598;48.112;16.280;2023-04-24T09:06:59;11.80;99.90
54788;DHT22;59598;48.112;16.280;2023-04-24T09:09:33;11.80;99.90
54788;DHT22;59598;48.112;16.280;2023-04-24T09:12:08;11.90;99.90
54788;DHT22;59598;48.112;16.280;2023-04-24T09:14:42;12.00;99.90
54788;DHT22;59598;48.112;16.280;2023-04-24T09:17:18;12.10;99.90
54788;DHT22;59598;48.112;16.280;2023-04-24T09:19:53;12.30;99.90
54788;DHT22;59598;48.112;16.280;2023-04-24T09:22:31;12.30;99.90
54788;DHT22;59598;48.112;16.280;2023-04-24T09:25:07;12.40;99.90
54788;DHT22;59598;48.112;16.280;2023-04-24T09:27:45;12.40;99.90
54788;DHT22;59598;48.112;16.280;2023-04-24T09:30:26;12.40;99.90
54788;DHT22;59598;48.112;16.280;2023-04-24T09:33:14;12.40;99.90
54788;DHT22;59598;48.112;16.280;2023-04-24T09:35:51;12.40;99.90
54788;DHT22;59598;48.112;16.280;2023-04-24T09:38:40;12.40;99.90
54788;DHT22;59598;48.112;16.280;2023-04-24T09:41:13;12.50;99.90
54788;DHT22;59598;48.112;16.280;2023-04-24T09:43:47;12.50;99.90
54788;DHT22;59598;48.112;16.280;2023-04-24T09:46:29;12.50;99.90
54788;DHT22;59598;48.112;16.280;2023-04-24T09:49:23;12.60;99.90
54788;DHT22;59598;48.112;16.280;2023-04-24T09:52:11;12.60;95.60
54788;DHT22;59598;48.112;16.280;2023-04-24T09:54:53;12.60;88.00
54788;DHT22;59598;48.112;16.280;2023-04-24T09:57:26;12.70;73.60
54788;DHT22;59598;48.112;16.280;2023-04-24T10:00:00;12.70;61.60
54788;DHT22;59598;48.112;16.280;2023-04-24T10:02:32;12.70;74.20
54788;DHT22;59598;48.112;16.280;2023-04-24T10:05:04;12.70;92.90
54788;DHT22;59598;48.112;16.280;2023-04-24T10:07:37;12.70;88.80
54788;DHT22;59598;48.112;16.280;2023-04-24T10:10:11;12.80;78.40
54788;DHT22;59598;48.112;16.280;2023-04-24T10:12:44;12.80;96.40
54788;DHT22;59598;48.112;16.280;2023-04-24T10:15:20;12.70;99.90
54788;DHT22;59598;48.112;16.280;2023-04-24T10:17:58;12.80;99.90
54788;DHT22;59598;48.112;16.280;2023-04-24T10:20:33;12.70;99.90
54788;DHT22;59598;48.112;16.280;2023-04-24T10:23:12;12.70;96.60
54788;DHT22;59598;48.112;16.280;2023-04-24T10:25:46;12.80;99.90
54788;DHT22;59598;48.112;16.280;2023-04-24T10:28:20;12.80;99.90
54788;DHT22;59598;48.112;16.280;2023-04-24T10:30:56;12.90;89.60
54788;DHT22;59598;48.112;16.280;2023-04-24T10:33:30;12.90;78.70
54788;DHT22;59598;48.112;16.280;2023-04-24T10:36:11;13.00;81.90
54788;DHT22;59598;48.112;16.280;2023-04-24T10:38:46;13.00;81.20
54788;DHT22;59598;48.112;16.280;2023-04-24T10:41:20;13.10;78.30
54788;DHT22;59598;48.112;16.280;2023-04-24T10:44:13;13.10;58.10
54788;DHT22;59598;48.112;16.280;2023-04-24T10:46:52;13.10;66.90
54788;DHT22;59598;48.112;16.280;2023-04-24T10:49:42;13.10;54.40
54788;DHT22;59598;48.112;16.280;2023-04-24T10:52:14;13.20;64.70
54788;DHT22;59598;48.112;16.280;2023-04-24T10:54:52;13.20;64.60
54788;DHT22;59598;48.112;16.280;2023-04-24T10:57:29;13.20;82.70
54788;DHT22;59598;48.112;16.280;2023-04-24T11:00:18;13.20;79.90
54788;DHT22;59598;48.112;16.280;2023-04-24T11:02:53;13.20;48.30
54788;DHT22;59598;48.112;16.280;2023-04-24T11:05:53;13.30;43.20
54788;DHT22;59598;48.112;16.280;2023-04-24T11:11:18;13.40;25.10
54788;DHT22;59598;48.112;16.280;2023-04-24T11:22:02;12.80;99.90
54788;DHT22;59598;48.112;16.280;2023-04-24T11:27:17;12.40;99.90
54788;DHT22;59598;48.112;16.280;2023-04-24T11:37:53;12.00;99.90
54788;DHT22;59598;48.112;16.280;2023-04-24T11:40:27;11.90;99.90
54788;DHT22;59598;48.112;16.280;2023-04-24T11:43:00;11.90;99.90
54788;DHT22;59598;48.112;16.280;2023-04-24T11:45:31;11.90;99.90
54788;DHT22;59598;48.112;16.280;2023-04-24T11:48:05;11.90;99.90
54788;DHT22;59598;48.112;16.280;2023-04-24T11:50:45;11.90;99.90
54788;DHT22;59598;48.112;16.280;2023-04-24T11:53:20;12.00;99.90
54788;DHT22;59598;48.112;16.280;2023-04-24T11:55:52;12.20;99.90
54788;DHT22;59598;48.112;16.280;2023-04-24T11:58:34;12.30;99.90
54788;DHT22;59598;48.112;16.280;2023-04-24T12:01:06;12.40;99.90
54788;DHT22;59598;48.112;16.280;2023-04-24T12:03:39;12.50;99.90
54788;DHT22;59598;48.112;16.280;2023-04-24T12:06:14;12.60;99.90
54788;DHT22;59598;48.112;16.280;2023-04-24T12:08:46;12.70;99.90
54788;DHT22;59598;48.112;16.280;2023-04-24T12:11:33;12.70;99.90
54788;DHT22;59598;48.112;16.280;2023-04-24T12:14:11;12.80;99.90
54788;DHT22;59598;48.112;16.280;2023-04-24T12:16:50;13.00;99.90
54788;DHT22;59598;48.112;16.280;2023-04-24T12:19:24;13.20;99.90
54788;DHT22;59598;48.112;16.280;2023-04-24T12:22:03;13.40;99.90
54788;DHT22;59598;48.112;16.280;2023-04-24T12:27:33;13.70;99.90
54788;DHT22;59598;48.112;16.280;2023-04-24T12:30:10;13.70;99.90
54788;DHT22;59598;48.112;16.280;2023-04-24T12:32:48;13.80;99.90
54788;DHT22;59598;48.112;16.280;2023-04-24T12:35:22;13.90;99.90
54788;DHT22;59598;48.112;16.280;2023-04-24T12:38:14;14.00;99.90
54788;DHT22;59598;48.112;16.280;2023-04-24T12:41:21;14.10;99.90
54788;DHT22;59598;48.112;16.280;2023-04-24T12:43:55;14.20;1.00
54788;DHT22;59598;48.112;16.280;2023-04-24T12:46:31;14.40;99.90
54788;DHT22;59598;48.112;16.280;2023-04-24T12:49:03;14.50;97.50
54788;DHT22;59598;48.112;16.280;2023-04-24T12:51:37;14.50;94.30
54788;DHT22;59598;48.112;16.280;2023-04-24T12:54:09;14.60;26.50
54788;DHT22;59598;48.112;16.280;2023-04-24T12:56:41;14.60;1.00
54788;DHT22;59598;48.112;16.280;2023-04-24T12:59:13;14.70;1.00
54788;DHT22;59598;48.112;16.280;2023-04-24T13:01:49;14.90;1.00
54788;DHT22;59598;48.112;16.280;2023-04-24T13:04:24;14.90;1.00
54788;DHT22;59598;48.112;16.280;2023-04-24T13:06:56;15.00;1.00
54788;DHT22;59598;48.112;16.280;2023-04-24T13:09:29;15.10;1.00
54788;DHT22;59598;48.112;16.280;2023-04-24T13:12:09;15.00;1.00
54788;DHT22;59598;48.112;16.280;2023-04-24T13:14:44;14.90;1.00
54788;DHT22;59598;48.112;16.280;2023-04-24T13:17:16;14.50;1.00
54788;DHT22;59598;48.112;16.280;2023-04-24T13:19:49;14.30;1.00
54788;DHT22;59598;48.112;16.280;2023-04-24T13:22:22;14.20;1.00
54788;DHT22;59598;48.112;16.280;2023-04-24T13:24:53;14.20;1.00
54788;DHT22;59598;48.112;16.280;2023-04-24T13:27:27;14.10;1.00
54788;DHT22;59598;48.112;16.280;2023-04-24T13:30:04;14.10;1.00
54788;DHT22;59598;48.112;16.280;2023-04-24T13:32:36;14.20;1.00
54788;DHT22;59598;48.112;16.280;2023-04-24T13:35:08;14.20;1.00
54788;DHT22;59598;48.112;16.280;2023-04-24T13:37:43;14.20;1.00
54788;DHT22;59598;48.112;16.280;2023-04-24T13:40:15;14.20;1.00
54788;DHT22;59598;48.112;16.280;2023-04-24T13:42:47;14.30;1.00
54788;DHT22;59598;48.112;16.280;2023-04-24T13:45:19;14.30;1.00
54788;DHT22;59598;48.112;16.280;2023-04-24T13:47:54;14.40;1.00
54788;DHT22;59598;48.112;16.280;2023-04-24T13:50:30;14.40;1.00
54788;DHT22;59598;48.112;16.280;2023-04-24T13:53:02;14.30;1.00
54788;DHT22;59598;48.112;16.280;2023-04-24T13:55:33;14.20;4.70
54788;DHT22;59598;48.112;16.280;2023-04-24T13:58:10;14.00;1.00
54788;DHT22;59598;48.112;16.280;2023-04-24T14:04:34;13.50;1.00
54788;DHT22;59598;48.112;16.280;2023-04-24T14:07:10;13.40;99.90
54788;DHT22;59598;48.112;16.280;2023-04-24T14:09:43;13.20;99.90
54788;DHT22;59598;48.112;16.280;2023-04-24T14:12:15;13.10;99.90
54788;DHT22;59598;48.112;16.280;2023-04-24T14:14:50;13.00;99.90
54788;DHT22;59598;48.112;16.280;2023-04-24T14:17:22;13.00;99.90
54788;DHT22;59598;48.112;16.280;2023-04-24T14:19:54;13.00;99.90
54788;DHT22;59598;48.112;16.280;2023-04-24T14:22:30;12.90;99.90
54788;DHT22;59598;48.112;16.280;2023-04-24T14:25:02;12.90;99.90
54788;DHT22;59598;48.112;16.280;2023-04-24T14:27:39;12.80;99.90
54788;DHT22;59598;48.112;16.280;2023-04-24T14:30:13;12.70;99.90
54788;DHT22;59598;48.112;16.280;2023-04-24T14:32:47;12.60;99.90
54788;DHT22;59598;48.112;16.280;2023-04-24T14:35:18;12.60;99.90
54788;DHT22;59598;48.112;16.280;2023-04-24T14:37:50;12.60;99.90
54788;DHT22;59598;48.112;16.280;2023-04-24T14:40:24;12.50;99.90
54788;DHT22;59598;48.112;16.280;2023-04-24T14:43:03;12.50;99.90
54788;DHT22;59598;48.112;16.280;2023-04-24T14:45:38;12.50;99.90
54788;DHT22;59598;48.112;16.280;2023-04-24T14:48:19;12.50;99.90
54788;DHT22;59598;48.112;16.280;2023-04-24T14:50:50;12.40;99.90
54788;DHT22;59598;48.112;16.280;2023-04-24T14:53:22;12.30;99.90
54788;DHT22;59598;48.112;16.280;2023-04-24T14:55:54;12.20;99.90
54788;DHT22;59598;48.112;16.280;2023-04-24T14:58:28;12.10;99.90
54788;DHT22;59598;48.112;16.280;2023-04-24T15:01:02;12.00;99.90
54788;DHT22;59598;48.112;16.280;2023-04-24T15:03:38;11.90;99.90
54788;DHT22;59598;48.112;16.280;2023-04-24T15:06:12;11.90;99.90
54788;DHT22;59598;48.112;16.280;2023-04-24T15:08:46;11.80;99.90
54788;DHT22;59598;48.112;16.280;2023-04-24T15:11:26;11.70;99.90
54788;DHT22;59598;48.112;16.280;2023-04-24T15:14:03;11.70;99.90
54788;DHT22;59598;48.112;16.280;2023-04-24T15:16:45;11.70;99.90
54788;DHT22;59598;48.112;16.280;2023-04-24T15:19:16;11.60;99.90
54788;DHT22;59598;48.112;16.280;2023-04-24T15:21:50;11.70;99.90
54788;DHT22;59598;48.112;16.280;2023-04-24T15:24:21;11.70;99.90
54788;DHT22;59598;48.112;16.280;2023-04-24T15:26:53;11.70;99.90
54788;DHT22;59598;48.112;16.280;2023-04-24T15:29:30;11.70;99.90
54788;DHT22;59598;48.112;16.280;2023-04-24T15:32:04;11.60;99.90
54788;DHT22;59598;48.112;16.280;2023-04-24T15:34:40;11.50;99.90
54788;DHT22;59598;48.112;16.280;2023-04-24T15:37:17;11.30;99.90
54788;DHT22;59598;48.112;16.280;2023-04-24T15:39:52;11.10;99.90
54788;DHT22;59598;48.112;16.280;2023-04-24T15:42:23;11.00;99.90
54788;DHT22;59598;48.112;16.280;2023-04-24T15:44:55;10.90;99.90
54788;DHT22;59598;48.112;16.280;2023-04-24T15:47:26;10.80;99.90
54788;DHT22;59598;48.112;16.280;2023-04-24T15:50:00;10.70;99.90
54788;DHT22;59598;48.112;16.280;2023-04-24T15:52:37;10.60;99.90
54788;DHT22;59598;48.112;16.280;2023-04-24T15:55:11;10.50;99.90
54788;DHT22;59598;48.112;16.280;2023-04-24T15:57:45;10.40;99.90
54788;DHT22;59598;48.112;16.280;2023-04-24T16:00:16;10.40;99.90
54788;DHT22;59598;48.112;16.280;2023-04-24T16:02:51;10.40;99.90
54788;DHT22;59598;48.112;16.280;2023-04-24T16:05:24;10.40;99.90
54788;DHT22;59598;48.112;16.280;2023-04-24T16:08:01;10.30;99.90
54788;DHT22;59598;48.112;16.280;2023-04-24T16:10:35;10.40;99.90
54788;DHT22;59598;48.112;16.280;2023-04-24T16:13:09;10.30;99.90
54788;DHT22;59598;48.112;16.280;2023-04-24T16:15:49;10.30;99.90
54788;DHT22;59598;48.112;16.280;2023-04-24T16:18:28;10.30;99.90
54788;DHT22;59598;48.112;16.280;2023-04-24T16:21:03;10.20;99.90
54788;DHT22;59598;48.112;16.280;2023-04-24T16:23:39;10.20;99.90
54788;DHT22;59598;48.112;16.280;2023-04-24T16:26:13;10.20;99.90
54788;DHT22;59598;48.112;16.280;2023-04-24T16:28:46;10.20;99.90
54788;DHT22;59598;48.112;16.280;2023-04-24T16:31:21;10.20;99.90
54788;DHT22;59598;48.112;16.280;2023-04-24T16:33:57;10.10;99.90
54788;DHT22;59598;48.112;16.280;2023-04-24T16:36:34;10.10;99.90
54788;DHT22;59598;48.112;16.280;2023-04-24T16:39:06;10.20;99.90